| time (UTC) | temp F | wind direction | speed MPH | gust MPH | rain 1hr in | rain 24hr in | rain mn in | humidity % | barometer mb |
| 20260508025012 | 52 | 45 | 7.0 | 7.0 | 0.00 | 0.00 | 0.00 | 60 | 88.8 |
| 20260508023012 | 54 | 68 | 10.0 | 10.0 | 0.00 | 0.00 | 0.00 | 53 | 88.8 |
| 20260508022012 | 55 | 90 | 6.0 | 6.0 | 0.00 | 0.00 | 0.00 | 51 | 88.8 |
| 20260508021011 | 57 | 90 | 5.0 | 5.0 | 0.00 | 0.00 | 0.00 | 49 | 88.8 |
| 20260508020011 | 58 | 68 | 6.0 | 6.0 | 0.00 | 0.00 | 0.00 | 47 | 88.8 |
| 20260508015011 | 59 | 90 | 7.0 | 7.0 | 0.00 | 0.00 | 0.00 | 46 | 88.8 |
| 20260508014013 | 60 | 90 | 9.0 | 9.0 | 0.00 | 0.00 | 0.00 | 45 | 88.8 |
| 20260508013011 | 62 | 68 | 12.0 | 12.0 | 0.00 | 0.00 | 0.00 | 44 | 88.8 |
| 20260508012012 | 62 | 68 | 14.0 | 14.0 | 0.00 | 0.00 | 0.00 | 43 | 88.8 |
| 20260508011012 | 63 | 68 | 13.0 | 13.0 | 0.00 | 0.00 | 0.00 | 42 | 88.8 |
| 20260508010011 | 64 | 112 | 9.0 | 9.0 | 0.00 | 0.00 | 0.00 | 42 | 88.8 |
| 20260508005011 | 64 | 90 | 10.0 | 10.0 | 0.00 | 0.00 | 0.00 | 41 | 88.8 |
| 20260508004012 | 65 | 112 | 11.0 | 11.0 | 0.00 | 0.00 | 0.00 | 42 | 88.8 |
| 20260508003013 | 65 | 90 | 10.0 | 10.0 | 0.00 | 0.00 | 0.00 | 41 | 88.8 |
| 20260508002012 | 65 | 90 | 10.0 | 10.0 | 0.00 | 0.00 | 0.00 | 41 | 88.8 |
| 20260508001013 | 64 | 90 | 10.0 | 10.0 | 0.00 | 0.00 | 0.00 | 41 | 88.8 |
| 20260508000012 | 64 | 90 | 13.0 | 13.0 | 0.00 | 0.00 | 0.00 | 40 | 88.8 |
| 20260507235011 | 63 | 112 | 9.0 | 9.0 | 0.00 | 0.00 | 0.00 | 41 | 88.8 |
| 20260507234012 | 63 | 90 | 11.0 | 11.0 | 0.00 | 0.00 | 0.00 | 41 | 88.8 |
| 20260507233011 | 63 | 112 | 14.0 | 14.0 | 0.00 | 0.00 | 0.00 | 40 | 88.8 |
| 20260507232011 | 64 | 90 | 12.0 | 12.0 | 0.00 | 0.00 | 0.00 | 40 | 88.8 |
| 20260507231012 | 64 | 90 | 12.0 | 12.0 | 0.00 | 0.00 | 0.00 | 41 | 88.8 |
| 20260507230011 | 66 | 90 | 10.0 | 10.0 | 0.00 | 0.00 | 0.00 | 39 | 88.8 |
| 20260507225012 | 67 | 90 | 16.0 | 16.0 | 0.00 | 0.00 | 0.00 | 39 | 88.8 |
| 20260507224011 | 68 | 45 | 8.0 | 8.0 | 0.00 | 0.00 | 0.00 | 40 | 88.8 |
| 20260507223012 | 68 | 270 | 5.0 | 5.0 | 0.00 | 0.00 | 0.00 | 40 | 88.8 |
| 20260507222012 | 67 | 292 | 13.0 | 13.0 | 0.00 | 0.00 | 0.00 | 39 | 88.8 |
| 20260507221011 | 66 | 315 | 9.0 | 9.0 | 0.00 | 0.00 | 0.00 | 40 | 88.8 |
| 20260507220012 | 67 | 270 | 3.0 | 3.0 | 0.00 | 0.00 | 0.00 | 38 | 88.8 |
| 20260507215012 | 68 | 270 | 5.0 | 5.0 | 0.00 | 0.00 | 0.00 | 38 | 88.8 |
| 20260507214011 | 69 | 0 | 4.0 | 4.0 | 0.00 | 0.00 | 0.00 | 36 | 88.8 |
| 20260507213011 | 69 | 270 | 8.0 | 8.0 | 0.00 | 0.00 | 0.00 | 37 | 88.8 |
| 20260507212012 | 69 | 292 | 10.0 | 10.0 | 0.00 | 0.00 | 0.00 | 37 | 88.8 |
| 20260507211012 | 69 | 292 | 6.0 | 6.0 | 0.00 | 0.00 | 0.00 | 37 | 88.8 |
| 20260507210012 | 68 | 270 | 10.0 | 10.0 | 0.00 | 0.00 | 0.00 | 38 | 88.8 |
| 20260507205012 | 67 | 315 | 6.0 | 6.0 | 0.00 | 0.00 | 0.00 | 40 | 88.8 |
| 20260507204012 | 66 | 292 | 6.0 | 6.0 | 0.00 | 0.00 | 0.00 | 39 | 88.8 |
| 20260507203013 | 66 | 292 | 5.0 | 5.0 | 0.00 | 0.00 | 0.00 | 38 | 88.8 |
| 20260507202012 | 65 | 270 | 12.0 | 12.0 | 0.00 | 0.00 | 0.00 | 38 | 88.8 |
| 20260507201011 | 65 | 270 | 8.0 | 8.0 | 0.00 | 0.00 | 0.00 | 39 | 88.8 |
| 20260507200013 | 65 | 225 | 12.0 | 12.0 | 0.00 | 0.00 | 0.00 | 35 | 88.8 |
| 20260507195012 | 65 | 270 | 8.0 | 8.0 | 0.00 | 0.00 | 0.00 | 34 | 88.8 |
| 20260507194012 | 64 | 270 | 13.0 | 13.0 | 0.00 | 0.00 | 0.00 | 35 | 88.8 |
| 20260507193012 | 62 | 225 | 5.0 | 5.0 | 0.00 | 0.00 | 0.00 | 35 | 88.8 |
| 20260507192012 | 62 | 225 | 11.0 | 11.0 | 0.00 | 0.00 | 0.00 | 39 | 88.8 |
| 20260507191012 | 62 | 202 | 6.0 | 6.0 | 0.00 | 0.00 | 0.00 | 41 | 88.8 |
| 20260507190012 | 61 | 270 | 6.0 | 6.0 | 0.00 | 0.00 | 0.00 | 42 | 88.8 |
| 20260507185011 | 59 | 270 | 8.0 | 8.0 | 0.00 | 0.00 | 0.00 | 44 | 88.8 |
| 20260507184011 | 59 | 270 | 8.0 | 8.0 | 0.00 | 0.00 | 0.00 | 45 | 88.8 |
| 20260507183012 | 59 | 270 | 16.0 | 16.0 | 0.00 | 0.00 | 0.00 | 41 | 88.8 |
| 20260507182012 | 59 | 225 | 8.0 | 8.0 | 0.00 | 0.00 | 0.00 | 40 | 88.8 |
| 20260507181011 | 60 | 270 | 9.0 | 9.0 | 0.00 | 0.00 | 0.00 | 39 | 88.8 |
| 20260507180011 | 59 | 270 | 8.0 | 8.0 | 0.00 | 0.00 | 0.00 | 37 | 88.8 |
| 20260507175012 | 59 | 248 | 8.0 | 8.0 | 0.00 | 0.00 | 0.00 | 37 | 88.8 |
| 20260507174012 | 59 | 270 | 9.0 | 9.0 | 0.00 | 0.00 | 0.00 | 40 | 88.8 |
| 20260507173011 | 60 | 270 | 11.0 | 11.0 | 0.00 | 0.00 | 0.00 | 35 | 88.8 |
| 20260507172012 | 61 | 270 | 6.0 | 6.0 | 0.00 | 0.00 | 0.00 | 36 | 88.8 |
| 20260507171011 | 61 | 270 | 12.0 | 12.0 | 0.00 | 0.00 | 0.00 | 39 | 88.8 |
| 20260507170011 | 60 | 270 | 8.0 | 8.0 | 0.00 | 0.00 | 0.00 | 30 | 88.8 |
| 20260507165012 | 59 | 270 | 9.0 | 9.0 | 0.00 | 0.00 | 0.00 | 31 | 88.8 |
| 20260507164012 | 58 | 202 | 9.0 | 9.0 | 0.00 | 0.00 | 0.00 | 32 | 88.8 |
| 20260507163011 | 58 | 225 | 11.0 | 11.0 | 0.00 | 0.00 | 0.00 | 32 | 88.8 |
| 20260507161012 | 57 | 248 | 10.0 | 10.0 | 0.00 | 0.00 | 0.00 | 33 | 88.8 |
| 20260507160012 | 56 | 270 | 8.0 | 8.0 | 0.00 | 0.00 | 0.00 | 34 | 88.8 |
| 20260507155012 | 56 | 202 | 11.0 | 11.0 | 0.00 | 0.00 | 0.00 | 35 | 88.8 |
| 20260507154012 | 56 | 225 | 5.0 | 5.0 | 0.00 | 0.00 | 0.00 | 35 | 88.8 |
| 20260507153011 | 54 | 248 | 8.0 | 8.0 | 0.00 | 0.00 | 0.00 | 36 | 88.8 |
| 20260507152012 | 54 | 202 | 11.0 | 11.0 | 0.00 | 0.00 | 0.00 | 36 | 88.8 |
| 20260507151012 | 54 | 202 | 10.0 | 10.0 | 0.00 | 0.00 | 0.00 | 37 | 88.8 |
| 20260507150011 | 53 | 225 | 9.0 | 9.0 | 0.00 | 0.00 | 0.00 | 37 | 88.8 |
| 20260507145012 | 52 | 225 | 8.0 | 8.0 | 0.00 | 0.00 | 0.00 | 39 | 88.8 |
| 20260507144011 | 52 | 225 | 10.0 | 10.0 | 0.00 | 0.00 | 0.00 | 40 | 88.8 |
| 20260507143012 | 50 | 248 | 11.0 | 11.0 | 0.00 | 0.00 | 0.00 | 40 | 88.8 |
| 20260507142012 | 49 | 202 | 6.0 | 6.0 | 0.00 | 0.00 | 0.00 | 42 | 88.8 |
| 20260507141012 | 47 | 225 | 5.0 | 5.0 | 0.00 | 0.00 | 0.00 | 42 | 88.8 |
| 20260507140011 | 46 | 225 | 9.0 | 9.0 | 0.00 | 0.00 | 0.00 | 44 | 88.8 |
| 20260507135011 | 45 | 270 | 8.0 | 8.0 | 0.00 | 0.00 | 0.00 | 44 | 88.8 |
| 20260507134012 | 44 | 270 | 9.0 | 9.0 | 0.00 | 0.00 | 0.00 | 44 | 88.8 |
| 20260507133012 | 44 | 202 | 7.0 | 7.0 | 0.00 | 0.00 | 0.00 | 45 | 88.8 |
| 20260507132011 | 43 | 225 | 7.0 | 7.0 | 0.00 | 0.00 | 0.00 | 48 | 88.8 |
| 20260507131012 | 42 | 202 | 6.0 | 6.0 | 0.00 | 0.00 | 0.00 | 50 | 88.8 |
| 20260507130012 | 40 | 225 | 4.0 | 4.0 | 0.00 | 0.00 | 0.00 | 50 | 88.8 |
| 20260507125011 | 39 | 202 | 7.0 | 7.0 | 0.00 | 0.00 | 0.00 | 51 | 88.8 |
| 20260507124012 | 37 | 225 | 5.0 | 5.0 | 0.00 | 0.00 | 0.00 | 52 | 88.8 |
| 20260507123012 | 36 | 202 | 5.0 | 5.0 | 0.00 | 0.00 | 0.00 | 53 | 88.8 |
| 20260507122012 | 34 | 225 | 4.0 | 4.0 | 0.00 | 0.00 | 0.00 | 56 | 88.8 |
| 20260507121012 | 33 | 248 | 5.0 | 5.0 | 0.00 | 0.00 | 0.00 | 58 | 88.8 |
| 20260507120012 | 32 | 202 | 4.0 | 4.0 | 0.00 | 0.00 | 0.00 | 60 | 88.8 |
| 20260507115012 | 31 | 225 | 3.0 | 3.0 | 0.00 | 0.00 | 0.00 | 61 | 88.8 |
| 20260507114012 | 29 | 225 | 4.0 | 4.0 | 0.00 | 0.00 | 0.00 | 62 | 88.8 |
| 20260507113012 | 28 | 202 | 4.0 | 4.0 | 0.00 | 0.00 | 0.00 | 64 | 88.8 |
| 20260507112012 | 27 | 225 | 5.0 | 5.0 | 0.00 | 0.00 | 0.00 | 66 | 88.8 |
| 20260507111011 | 26 | 202 | 4.0 | 4.0 | 0.00 | 0.00 | 0.00 | 68 | 88.8 |
| 20260507110013 | 26 | 225 | 4.0 | 4.0 | 0.00 | 0.00 | 0.00 | 67 | 88.8 |
| 20260507105012 | 25 | 225 | 3.0 | 3.0 | 0.00 | 0.00 | 0.00 | 67 | 88.8 |
| 20260507104012 | 25 | 202 | 3.0 | 3.0 | 0.00 | 0.00 | 0.00 | 67 | 88.8 |
| 20260507103012 | 26 | 225 | 3.0 | 3.0 | 0.00 | 0.00 | 0.00 | 67 | 88.8 |
| 20260507102011 | 27 | 180 | 3.0 | 3.0 | 0.00 | 0.00 | 0.00 | 66 | 88.8 |
| 20260507101012 | 27 | 180 | 3.0 | 3.0 | 0.00 | 0.00 | 0.00 | 65 | 88.8 |
| 20260507100012 | 27 | 180 | 3.0 | 3.0 | 0.00 | 0.00 | 0.00 | 66 | 88.8 |
| 20260507095012 | 26 | 202 | 4.0 | 4.0 | 0.00 | 0.00 | 0.00 | 62 | 88.8 |
| 20260507094012 | 24 | 225 | 4.0 | 4.0 | 0.00 | 0.00 | 0.00 | 64 | 88.8 |
| 20260507093012 | 24 | 202 | 3.0 | 3.0 | 0.00 | 0.00 | 0.00 | 64 | 88.8 |
| 20260507092012 | 25 | 225 | 3.0 | 3.0 | 0.00 | 0.00 | 0.00 | 64 | 88.8 |
| 20260507091012 | 27 | 202 | 3.0 | 3.0 | 0.00 | 0.00 | 0.00 | 63 | 88.8 |
| 20260507085011 | 28 | 202 | 4.0 | 4.0 | 0.00 | 0.00 | 0.00 | 61 | 88.8 |
| 20260507084012 | 28 | 180 | 4.0 | 4.0 | 0.00 | 0.00 | 0.00 | 61 | 88.8 |
| 20260507083012 | 28 | 202 | 4.0 | 4.0 | 0.00 | 0.00 | 0.00 | 61 | 88.8 |
| 20260507082012 | 28 | 225 | 3.0 | 3.0 | 0.00 | 0.00 | 0.00 | 60 | 88.8 |
| 20260507081011 | 29 | 180 | 4.0 | 4.0 | 0.00 | 0.00 | 0.00 | 60 | 88.8 |
| 20260507080012 | 29 | 202 | 3.0 | 3.0 | 0.00 | 0.00 | 0.00 | 60 | 88.8 |
| 20260507075011 | 29 | 202 | 4.0 | 4.0 | 0.00 | 0.00 | 0.00 | 58 | 88.8 |
| 20260507074011 | 29 | 180 | 4.0 | 4.0 | 0.00 | 0.00 | 0.00 | 57 | 88.8 |
| 20260507073012 | 28 | 180 | 4.0 | 4.0 | 0.00 | 0.00 | 0.00 | 55 | 88.8 |
| 20260507072011 | 29 | 158 | 5.0 | 5.0 | 0.00 | 0.00 | 0.00 | 52 | 88.8 |
| 20260507071012 | 29 | 158 | 5.0 | 5.0 | 0.00 | 0.00 | 0.00 | 51 | 88.8 |
| 20260507070013 | 30 | 180 | 5.0 | 5.0 | 0.00 | 0.00 | 0.00 | 49 | 88.8 |
| 20260507065011 | 30 | 180 | 4.0 | 4.0 | 0.00 | 0.00 | 0.00 | 49 | 88.8 |
| 20260507064011 | 30 | 158 | 5.0 | 5.0 | 0.00 | 0.00 | 0.00 | 48 | 88.8 |
| 20260507063012 | 30 | 180 | 4.0 | 4.0 | 0.00 | 0.00 | 0.00 | 48 | 88.8 |
| 20260507062017 | 29 | 158 | 5.0 | 5.0 | 0.00 | 0.00 | 0.00 | 48 | 88.8 |
| 20260507061011 | 29 | 180 | 5.0 | 5.0 | 0.00 | 0.00 | 0.00 | 45 | 88.8 |
| 20260507060012 | 28 | 180 | 4.0 | 4.0 | 0.00 | 0.00 | 0.00 | 43 | 88.8 |
| 20260507055012 | 28 | 180 | 3.0 | 3.0 | 0.00 | 0.00 | 0.00 | 43 | 88.8 |
| 20260507054011 | 27 | 180 | 4.0 | 4.0 | 0.00 | 0.00 | 0.00 | 43 | 88.8 |
| 20260507053012 | 27 | 180 | 3.0 | 3.0 | 0.00 | 0.00 | 0.00 | 43 | 88.8 |
| 20260507052012 | 27 | 158 | 3.0 | 3.0 | 0.00 | 0.00 | 0.00 | 43 | 88.8 |
| 20260507051011 | 28 | 135 | 2.0 | 2.0 | 0.00 | 0.00 | 0.00 | 43 | 88.8 |
| 20260507050012 | 28 | 180 | 0.0 | 0.0 | 0.00 | 0.00 | 0.00 | 43 | 88.8 |
| 20260507045012 | 28 | 180 | 4.0 | 4.0 | 0.00 | 0.00 | 0.00 | 42 | 88.8 |
| 20260507044011 | 28 | 180 | 3.0 | 3.0 | 0.00 | 0.00 | 0.00 | 44 | 88.8 |
| 20260507043012 | 29 | 158 | 2.0 | 2.0 | 0.00 | 0.00 | 0.00 | 43 | 88.8 |
| 20260507042012 | 30 | 180 | 2.0 | 2.0 | 0.00 | 0.00 | 0.00 | 43 | 88.8 |
| 20260507041011 | 31 | 135 | 3.0 | 3.0 | 0.00 | 0.00 | 0.00 | 43 | 88.8 |
| 20260507040013 | 31 | 158 | 2.0 | 2.0 | 0.00 | 0.00 | 0.00 | 43 | 88.8 |
| 20260507035017 | 31 | 180 | 2.0 | 2.0 | 0.00 | 0.00 | 0.00 | 43 | 88.8 |
| 20260507034011 | 32 | 180 | 2.0 | 2.0 | 0.00 | 0.00 | 0.00 | 43 | 88.8 |
| 20260507033012 | 32 | 180 | 0.0 | 0.0 | 0.00 | 0.00 | 0.00 | 43 | 88.8 |
| 20260507032011 | 33 | 180 | 0.0 | 0.0 | 0.00 | 0.00 | 0.00 | 42 | 88.8 |
| 20260507031011 | 33 | 158 | 0.0 | 0.0 | 0.00 | 0.00 | 0.00 | 42 | 88.8 |
| 20260507030012 | 33 | 112 | 2.0 | 2.0 | 0.00 | 0.00 | 0.00 | 42 | 88.8 |